Time;durP1;ratioP1;P1;durP2;ratioP2;P2;SDS_P1;SDS_P2;PMS_P1;PMS_P2;Temp;Humidity;BMP_temperature;BMP_pressure;BME280_temperature;BME280_humidity;BME280_pressure;Samples;Min_cycle;Max_cycle;Signal;HPM_P1;HPM_P2
2020/12/23 00:02:01;;;;;;;685.40;630.23;;;;;;;;;;5101736;28;20256;-62
2020/12/23 00:04:28;;;;;;;686.27;634.23;;;;;;;;;;5099915;28;20178;-63
2020/12/23 00:06:58;;;;;;;739.27;685.57;;;;;;;;;;5100489;28;20296;-62
2020/12/23 00:09:24;;;;;;;687.23;632.50;;;;;;;;;;5100410;28;20185;-62
2020/12/23 00:11:57;;;;;;;721.40;664.73;;;;;;;;;;5099553;28;20178;-62
2020/12/23 00:14:23;;;;;;;690.03;637.20;;;;;;;;;;5100668;28;20220;-63
2020/12/23 00:16:50;;;;;;;671.97;619.23;;;;;;;;;;5101179;28;20174;-62
2020/12/23 00:19:17;;;;;;;731.20;674.00;;;;;;;;;;5100917;28;20177;-61
2020/12/23 00:21:43;;;;;;;712.03;654.43;;;;;;;;;;5099643;28;20181;-61
2020/12/23 00:24:10;;;;;;;717.13;665.43;;;;;;;;;;5100897;28;20620;-62
2020/12/23 00:26:36;;;;;;;711.43;659.73;;;;;;;;;;5100320;28;20189;-62
2020/12/23 00:29:03;;;;;;;645.43;598.47;;;;;;;;;;5100431;28;20612;-62
2020/12/23 00:31:29;;;;;;;835.67;770.60;;;;;;;;;;5100382;28;20579;-61
2020/12/23 00:33:56;;;;;;;700.03;642.67;;;;;;;;;;5100363;28;20717;-63
2020/12/23 00:36:24;;;;;;;736.03;675.37;;;;;;;;;;5099366;28;20180;-62
2020/12/23 00:38:50;;;;;;;693.10;641.00;;;;;;;;;;5099795;28;20640;-62
2020/12/23 00:41:18;;;;;;;783.97;721.67;;;;;;;;;;5099626;28;20177;-63
2020/12/23 00:43:44;;;;;;;690.33;640.47;;;;;;;;;;5099974;28;20173;-63
2020/12/23 00:46:12;;;;;;;734.23;675.40;;;;;;;;;;5099797;28;20177;-64
2020/12/23 00:48:42;;;;;;;709.33;655.27;;;;;;;;;;5098988;28;20269;-62
2020/12/23 00:51:09;;;;;;;821.73;751.20;;;;;;;;;;5099767;28;20200;-62
2020/12/23 00:53:36;;;;;;;611.03;566.43;;;;;;;;;;5099443;28;20272;-63
2020/12/23 00:56:02;;;;;;;743.27;688.73;;;;;;;;;;5099935;28;20181;-62
2020/12/23 00:58:29;;;;;;;750.03;684.97;;;;;;;;;;5099499;28;20181;-62
2020/12/23 01:00:55;;;;;;;688.20;631.27;;;;;;;;;;5099799;28;20538;-63
2020/12/23 01:03:22;;;;;;;885.63;805.60;;;;;;;;;;5080986;28;20227;-63
2020/12/23 01:05:49;;;;;;;744.63;682.90;;;;;;;;;;5097203;28;20185;-62
2020/12/23 01:08:16;;;;;;;733.33;671.97;;;;;;;;;;5100450;28;20212;-61
2020/12/23 01:10:46;;;;;;;826.13;757.03;;;;;;;;;;5100368;28;20301;-62
2020/12/23 01:13:13;;;;;;;812.30;748.53;;;;;;;;;;5100174;28;20336;-63
2020/12/23 01:15:39;;;;;;;631.97;587.03;;;;;;;;;;5101047;28;20173;-62
2020/12/23 01:18:06;;;;;;;704.97;646.60;;;;;;;;;;5100165;28;20174;-61
2020/12/23 01:20:33;;;;;;;693.40;637.67;;;;;;;;;;5100237;28;20212;-62
2020/12/23 01:23:00;;;;;;;660.50;611.20;;;;;;;;;;5099674;28;20748;-62
2020/12/23 01:25:26;;;;;;;762.10;696.90;;;;;;;;;;5099358;28;20177;-63
2020/12/23 01:27:53;;;;;;;657.43;607.43;;;;;;;;;;5100442;28;20210;-64
2020/12/23 01:30:19;;;;;;;748.30;687.63;;;;;;;;;;5100675;28;20169;-62
2020/12/23 01:32:46;;;;;;;783.27;719.20;;;;;;;;;;5099471;28;20205;-62
2020/12/23 01:35:12;;;;;;;792.10;727.83;;;;;;;;;;5099776;28;20593;-63
2020/12/23 01:37:40;;;;;;;717.53;666.20;;;;;;;;;;5081909;28;20201;-63
2020/12/23 01:40:08;;;;;;;832.23;765.23;;;;;;;;;;5081347;28;20785;-62
2020/12/23 01:42:35;;;;;;;739.57;681.33;;;;;;;;;;5099579;28;20182;-62
2020/12/23 01:45:02;;;;;;;695.80;643.50;;;;;;;;;;5100050;28;20184;-63
2020/12/23 01:47:31;;;;;;;818.97;747.97;;;;;;;;;;5100228;28;20216;-62
2020/12/23 01:49:58;;;;;;;711.97;660.17;;;;;;;;;;5100162;28;20173;-63
2020/12/23 01:52:25;;;;;;;684.87;630.20;;;;;;;;;;5099877;28;20237;-61
2020/12/23 01:54:54;;;;;;;755.43;695.70;;;;;;;;;;5100068;28;20551;-63
2020/12/23 01:57:21;;;;;;;758.47;698.17;;;;;;;;;;5099599;28;20228;-62
2020/12/23 01:59:50;;;;;;;778.93;713.20;;;;;;;;;;5099692;28;20181;-62
2020/12/23 02:02:29;;;;;;;658.40;611.63;;;;;;;;;;5099910;28;20178;-62
2020/12/23 02:04:57;;;;;;;673.27;620.00;;;;;;;;;;5098616;28;20242;-62
2020/12/23 02:07:24;;;;;;;742.13;680.40;;;;;;;;;;5101992;28;20232;-62
2020/12/23 02:09:52;;;;;;;810.37;738.93;;;;;;;;;;5119222;28;20516;-63
2020/12/23 02:12:18;;;;;;;726.30;666.53;;;;;;;;;;5098650;28;20181;-62
2020/12/23 02:14:45;;;;;;;626.23;581.67;;;;;;;;;;5099973;28;20189;-65
2020/12/23 02:17:11;;;;;;;639.67;592.87;;;;;;;;;;5099629;28;20250;-64
2020/12/23 02:19:50;;;;;;;595.70;552.97;;;;;;;;;;5099434;28;20185;-63
2020/12/23 02:22:18;;;;;;;724.63;666.90;;;;;;;;;;5079818;28;20569;-62
2020/12/23 02:24:45;;;;;;;715.43;659.10;;;;;;;;;;5079235;28;20573;-62
2020/12/23 02:27:11;;;;;;;690.33;632.17;;;;;;;;;;5078163;28;20193;-63
2020/12/23 02:29:43;;;;;;;718.50;655.73;;;;;;;;;;5080261;28;20181;-64
2020/12/23 02:32:09;;;;;;;728.23;670.23;;;;;;;;;;5078546;28;20186;-62
2020/12/23 14:00:10;;;;;;;970.77;883.10;;;;;;;;;;5094914;27;20600;-64
2020/12/23 14:02:36;;;;;;;1010.30;922.37;;;;;;;;;;5096617;28;20189;-63
2020/12/23 14:05:04;;;;;;;1012.53;917.93;;;;;;;;;;5096974;28;20239;-63
2020/12/23 14:07:31;;;;;;;966.10;875.20;;;;;;;;;;5091900;28;20190;-63
2020/12/23 14:09:58;;;;;;;1040.53;943.03;;;;;;;;;;5092905;28;20204;-65
2020/12/23 14:12:25;;;;;;;997.83;908.53;;;;;;;;;;5092384;28;20266;-62
2020/12/23 14:14:52;;;;;;;996.60;909.50;;;;;;;;;;5095031;28;20182;-63
2020/12/23 14:17:19;;;;;;;1001.10;909.87;;;;;;;;;;5095789;28;20755;-63
2020/12/23 14:19:45;;;;;;;1040.10;943.13;;;;;;;;;;5095280;28;20217;-63
2020/12/23 14:22:12;;;;;;;1068.50;967.50;;;;;;;;;;5095024;28;20715;-62
2020/12/23 14:24:39;;;;;;;1054.23;958.77;;;;;;;;;;5093650;28;20297;-64
2020/12/23 14:27:05;;;;;;;1077.07;974.17;;;;;;;;;;5092696;28;20296;-63
2020/12/23 14:29:33;;;;;;;1063.27;963.40;;;;;;;;;;5095759;28;20182;-63
2020/12/23 14:32:00;;;;;;;1045.67;951.50;;;;;;;;;;5095070;28;20192;-63
2020/12/23 14:34:26;;;;;;;1069.63;965.20;;;;;;;;;;5096053;28;20189;-63
2020/12/23 14:36:53;;;;;;;1063.87;957.57;;;;;;;;;;5095847;28;20276;-64
2020/12/23 14:39:19;;;;;;;1033.73;936.50;;;;;;;;;;5094585;28;20213;-64
2020/12/23 14:41:50;;;;;;;1108.57;993.10;;;;;;;;;;5093770;28;20182;-60
2020/12/23 14:44:17;;;;;;;1079.20;972.90;;;;;;;;;;5091552;28;20186;-61
2020/12/23 14:46:43;;;;;;;1071.17;966.77;;;;;;;;;;5096363;28;20258;-62
2020/12/23 14:49:10;;;;;;;1079.37;975.83;;;;;;;;;;5095054;28;20186;-63
2020/12/23 14:51:36;;;;;;;1074.30;973.23;;;;;;;;;;5092419;28;20186;-61
2020/12/23 14:54:03;;;;;;;1145.43;999.90;;;;;;;;;;5096007;28;20632;-63
2020/12/23 14:56:30;;;;;;;1099.97;987.43;;;;;;;;;;5093944;28;20578;-64
2020/12/23 14:58:57;;;;;;;1057.60;960.23;;;;;;;;;;5095794;28;20241;-63
2020/12/23 15:01:23;;;;;;;1070.30;973.57;;;;;;;;;;5095550;28;20174;-62
2020/12/23 15:03:50;;;;;;;1105.43;993.77;;;;;;;;;;5095562;28;20205;-62
2020/12/23 15:06:19;;;;;;;1055.43;962.33;;;;;;;;;;5095297;28;20193;-63
2020/12/23 15:08:46;;;;;;;1105.63;993.30;;;;;;;;;;5094692;28;20197;-64
2020/12/23 15:11:13;;;;;;;1064.70;961.67;;;;;;;;;;5083121;28;20194;-64
2020/12/23 15:13:39;;;;;;;1096.67;986.40;;;;;;;;;;5081130;28;20182;-64
2020/12/23 15:16:06;;;;;;;1111.03;997.20;;;;;;;;;;5082410;28;20644;-62
2020/12/23 15:18:33;;;;;;;1085.53;974.83;;;;;;;;;;5081427;28;20225;-63
2020/12/23 15:21:00;;;;;;;1055.17;953.50;;;;;;;;;;5079168;28;20191;-64
2020/12/23 15:23:27;;;;;;;1008.10;916.87;;;;;;;;;;5080920;28;20713;-63
2020/12/23 15:25:55;;;;;;;1049.17;947.40;;;;;;;;;;5081765;28;20221;-64
2020/12/23 15:28:25;;;;;;;958.80;871.57;;;;;;;;;;5079764;28;20187;-64
2020/12/23 15:30:51;;;;;;;883.50;810.50;;;;;;;;;;5080771;28;20206;-62
2020/12/23 15:33:18;;;;;;;831.03;759.10;;;;;;;;;;5080144;28;20201;-64
2020/12/23 15:35:45;;;;;;;714.90;656.37;;;;;;;;;;5075681;28;20648;-65
2020/12/23 15:38:12;;;;;;;721.47;660.07;;;;;;;;;;5079325;28;20229;-63
2020/12/23 15:40:38;;;;;;;648.83;601.97;;;;;;;;;;5079752;28;20175;-63
2020/12/23 15:43:05;;;;;;;764.57;703.53;;;;;;;;;;5078703;28;20178;-61
2020/12/23 15:45:32;;;;;;;893.97;817.17;;;;;;;;;;5081419;28;20218;-62
2020/12/23 15:47:58;;;;;;;894.13;816.30;;;;;;;;;;5081312;28;20601;-61
2020/12/23 15:50:25;;;;;;;913.23;831.70;;;;;;;;;;5077590;28;20202;-62
2020/12/23 15:52:52;;;;;;;1001.57;905.07;;;;;;;;;;5082494;28;20614;-62
2020/12/23 15:55:18;;;;;;;1026.17;925.47;;;;;;;;;;5082601;28;20193;-62
2020/12/23 15:57:45;;;;;;;898.47;816.30;;;;;;;;;;5078988;28;20187;-61
2020/12/23 16:00:12;;;;;;;954.57;868.67;;;;;;;;;;5082229;28;20182;-61
2020/12/23 16:02:38;;;;;;;974.27;879.53;;;;;;;;;;5081158;28;20225;-62
2020/12/23 16:05:05;;;;;;;955.40;869.70;;;;;;;;;;5080749;28;20171;-61
2020/12/23 16:07:32;;;;;;;877.23;807.00;;;;;;;;;;5078536;28;20201;-63
2020/12/23 16:09:59;;;;;;;945.27;865.33;;;;;;;;;;5082561;28;20696;-63
2020/12/23 16:12:26;;;;;;;1041.93;942.03;;;;;;;;;;5082570;28;20171;-63
2020/12/23 16:14:53;;;;;;;974.43;884.70;;;;;;;;;;5080843;28;20166;-62
2020/12/23 16:17:19;;;;;;;1038.60;937.50;;;;;;;;;;5080250;28;21555;-64
2020/12/23 16:19:46;;;;;;;1036.67;934.60;;;;;;;;;;5081796;28;20334;-60
2020/12/23 16:22:12;;;;;;;977.40;887.13;;;;;;;;;;5080703;28;20314;-62
2020/12/23 16:24:39;;;;;;;1032.80;933.60;;;;;;;;;;5081907;28;20179;-60
2020/12/23 16:27:10;;;;;;;991.63;896.97;;;;;;;;;;5078992;28;20709;-60
2020/12/23 16:29:37;;;;;;;987.90;910.27;;;;;;;;;;5064032;28;20171;-63
2020/12/23 16:32:04;;;;;;;960.50;870.13;;;;;;;;;;5081347;28;20231;-63
2020/12/23 16:34:31;;;;;;;1018.30;924.77;;;;;;;;;;5078632;28;20245;-62
2020/12/23 16:37:01;;;;;;;988.60;903.00;;;;;;;;;;5073486;28;20263;-61
2020/12/23 16:39:28;;;;;;;967.53;885.50;;;;;;;;;;5066551;28;20517;-61
2020/12/23 16:41:57;;;;;;;965.07;881.77;;;;;;;;;;5082005;28;20621;-63
2020/12/23 16:44:23;;;;;;;1014.60;926.40;;;;;;;;;;5081928;28;20171;-62
2020/12/23 16:46:50;;;;;;;1041.17;937.90;;;;;;;;;;5081919;28;20170;-62
2020/12/23 16:49:16;;;;;;;1000.00;907.23;;;;;;;;;;5080019;28;20172;-61
2020/12/23 16:51:43;;;;;;;977.67;891.40;;;;;;;;;;5078616;28;20174;-62
2020/12/23 16:54:11;;;;;;;1006.30;917.90;;;;;;;;;;5081525;28;20614;-62
2020/12/23 16:56:37;;;;;;;958.07;871.73;;;;;;;;;;5080823;28;20528;-62
2020/12/23 16:59:04;;;;;;;979.70;892.10;;;;;;;;;;5064694;28;20246;-63
2020/12/23 17:01:31;;;;;;;1009.63;915.47;;;;;;;;;;5068987;28;20267;-62
2020/12/23 17:03:58;;;;;;;1005.13;911.20;;;;;;;;;;5080053;28;20219;-61
2020/12/23 17:06:24;;;;;;;936.77;858.00;;;;;;;;;;5081344;28;20174;-63
2020/12/23 17:08:56;;;;;;;980.53;892.80;;;;;;;;;;5079041;28;20278;-63
2020/12/23 17:11:22;;;;;;;1035.67;935.63;;;;;;;;;;5063157;28;20394;-62
2020/12/23 17:13:49;;;;;;;1009.37;919.83;;;;;;;;;;5076552;28;20184;-64
2020/12/23 17:16:16;;;;;;;957.40;870.27;;;;;;;;;;5082935;28;20236;-61
2020/12/23 17:18:42;;;;;;;1049.37;947.37;;;;;;;;;;5080795;28;20215;-62
2020/12/23 17:21:09;;;;;;;998.97;903.40;;;;;;;;;;5081956;28;20195;-62
2020/12/23 17:23:35;;;;;;;1004.33;909.63;;;;;;;;;;5081809;28;20181;-61
2020/12/23 17:26:02;;;;;;;1002.40;910.50;;;;;;;;;;5081161;28;20175;-62
2020/12/23 17:28:28;;;;;;;1023.07;927.80;;;;;;;;;;5082193;28;20181;-62
2020/12/23 17:30:55;;;;;;;991.03;900.60;;;;;;;;;;5076942;28;20179;-62
2020/12/23 17:33:21;;;;;;;996.70;901.90;;;;;;;;;;5080775;28;20183;-61
2020/12/23 17:35:51;;;;;;;985.40;894.97;;;;;;;;;;5081381;28;20173;-62
2020/12/23 17:38:18;;;;;;;962.27;876.73;;;;;;;;;;5078604;28;20382;-62
2020/12/23 17:40:44;;;;;;;1048.87;948.70;;;;;;;;;;5080762;28;20175;-63
2020/12/23 17:43:11;;;;;;;1043.07;943.83;;;;;;;;;;5078899;28;20179;-63
2020/12/23 17:45:37;;;;;;;1054.30;946.37;;;;;;;;;;5079877;28;20178;-61
2020/12/23 17:48:04;;;;;;;1089.87;977.73;;;;;;;;;;5080472;28;20171;-61
2020/12/23 17:50:30;;;;;;;1044.90;941.13;;;;;;;;;;5077209;28;20174;-60
2020/12/23 17:52:57;;;;;;;1022.97;924.93;;;;;;;;;;5066414;28;20229;-62
2020/12/23 17:55:23;;;;;;;949.20;874.77;;;;;;;;;;5060679;28;20213;-61
2020/12/23 17:57:50;;;;;;;1027.40;932.63;;;;;;;;;;5060318;28;20172;-61
2020/12/23 18:00:16;;;;;;;1039.10;926.13;;;;;;;;;;5077713;28;20190;-61
2020/12/23 18:02:44;;;;;;;1074.57;961.13;;;;;;;;;;5077950;28;20172;-61
2020/12/23 18:05:10;;;;;;;1056.60;951.40;;;;;;;;;;5079575;28;20187;-61
2020/12/23 18:07:37;;;;;;;1064.63;957.23;;;;;;;;;;5076650;28;20553;-61
2020/12/23 18:10:04;;;;;;;1080.53;970.43;;;;;;;;;;5079899;28;20244;-62
2020/12/23 18:12:31;;;;;;;1040.53;938.90;;;;;;;;;;5078707;28;20192;-63
2020/12/23 18:14:58;;;;;;;1068.77;963.83;;;;;;;;;;5079014;28;20181;-62
2020/12/23 18:17:25;;;;;;;1037.67;932.17;;;;;;;;;;5079148;28;20178;-62
2020/12/23 18:19:51;;;;;;;1046.50;947.10;;;;;;;;;;5078027;28;20217;-62
2020/12/23 18:22:19;;;;;;;1070.90;960.97;;;;;;;;;;5079483;28;20554;-63
2020/12/23 18:24:46;;;;;;;1101.87;987.53;;;;;;;;;;5079119;28;20258;-63
2020/12/23 18:27:13;;;;;;;1049.80;947.07;;;;;;;;;;5078687;28;20683;-63
2020/12/23 18:29:40;;;;;;;1089.90;979.10;;;;;;;;;;5077344;28;20178;-63
2020/12/23 18:32:06;;;;;;;1090.30;976.13;;;;;;;;;;5078971;28;20181;-62
2020/12/23 18:34:33;;;;;;;1042.83;936.67;;;;;;;;;;5072521;28;20259;-62
2020/12/23 18:37:00;;;;;;;1078.30;970.60;;;;;;;;;;5092172;28;20193;-62
2020/12/23 18:39:27;;;;;;;1084.03;966.17;;;;;;;;;;5072140;28;20620;-62
2020/12/23 18:41:57;;;;;;;1101.23;983.53;;;;;;;;;;5077711;28;20240;-64
2020/12/23 18:44:24;;;;;;;1100.23;981.23;;;;;;;;;;5075707;28;20188;-62
2020/12/23 18:46:51;;;;;;;1064.53;956.50;;;;;;;;;;5080519;28;20265;-62
2020/12/23 18:49:17;;;;;;;999.03;913.77;;;;;;;;;;5090840;28;20227;-62
2020/12/23 18:51:44;;;;;;;1055.80;945.67;;;;;;;;;;5084784;28;20190;-62
2020/12/23 18:54:11;;;;;;;1070.37;963.63;;;;;;;;;;5084715;28;20660;-60
2020/12/23 18:56:37;;;;;;;1036.27;936.27;;;;;;;;;;5083415;28;20909;-62
2020/12/23 18:59:04;;;;;;;1062.67;956.93;;;;;;;;;;5081993;28;20231;-61
2020/12/23 19:01:31;;;;;;;1079.60;969.00;;;;;;;;;;5082128;28;20179;-61
2020/12/23 19:04:00;;;;;;;1124.67;999.70;;;;;;;;;;5083695;28;20487;-61
2020/12/23 19:06:27;;;;;;;1110.70;997.30;;;;;;;;;;5083612;28;20178;-61
2020/12/23 19:08:54;;;;;;;1144.77;999.90;;;;;;;;;;5080253;28;20170;-61
2020/12/23 19:11:21;;;;;;;1130.30;999.90;;;;;;;;;;5087802;28;20245;-62
2020/12/23 19:13:48;;;;;;;1099.80;985.17;;;;;;;;;;5082398;28;20660;-62
2020/12/23 19:16:15;;;;;;;1173.93;998.67;;;;;;;;;;5081040;28;20186;-63
2020/12/23 19:18:42;;;;;;;1075.07;966.47;;;;;;;;;;5079594;28;20679;-61
2020/12/23 19:21:09;;;;;;;1034.30;936.13;;;;;;;;;;5083178;28;20673;-62
2020/12/23 19:23:36;;;;;;;1165.80;999.30;;;;;;;;;;5089225;28;20178;-62
2020/12/23 19:26:03;;;;;;;1134.03;999.90;;;;;;;;;;5088345;28;20227;-63
2020/12/23 19:28:29;;;;;;;1108.03;992.07;;;;;;;;;;5083629;28;20278;-64
2020/12/23 19:30:56;;;;;;;1069.80;961.70;;;;;;;;;;5078141;28;20193;-64
2020/12/23 19:33:23;;;;;;;1154.30;999.90;;;;;;;;;;5081926;28;20171;-64
2020/12/23 19:35:49;;;;;;;1185.77;999.90;;;;;;;;;;5075788;28;20183;-64
2020/12/23 19:38:16;;;;;;;1134.47;999.90;;;;;;;;;;5078621;28;20214;-64
2020/12/23 19:40:44;;;;;;;1117.00;994.57;;;;;;;;;;5079844;28;20179;-63
2020/12/23 19:43:11;;;;;;;1124.80;997.60;;;;;;;;;;5078242;28;20194;-64
2020/12/23 19:45:38;;;;;;;1100.37;982.53;;;;;;;;;;5087372;28;20653;-66
2020/12/23 19:48:11;;;;;;;1143.97;999.90;;;;;;;;;;5094588;28;20594;-62
2020/12/23 19:50:38;;;;;;;1161.57;999.90;;;;;;;;;;5077978;28;20190;-64
2020/12/23 19:53:05;;;;;;;1098.73;982.87;;;;;;;;;;5083541;28;20174;-65
2020/12/23 19:55:32;;;;;;;1162.47;999.90;;;;;;;;;;5071671;28;20182;-64
2020/12/23 19:57:59;;;;;;;1207.17;999.90;;;;;;;;;;5066696;28;20257;-65
2020/12/23 20:00:25;;;;;;;1140.70;999.90;;;;;;;;;;5081421;28;20229;-64
2020/12/23 20:02:52;;;;;;;1185.87;999.90;;;;;;;;;;5078309;28;20585;-64
2020/12/23 20:05:19;;;;;;;1110.80;997.13;;;;;;;;;;5071149;28;20187;-65
2020/12/23 20:08:03;;;;;;;1219.23;999.90;;;;;;;;;;5074547;28;20666;-64
2020/12/23 20:10:30;;;;;;;1161.40;999.90;;;;;;;;;;5056614;28;20269;-64
2020/12/23 20:12:56;;;;;;;1119.43;997.83;;;;;;;;;;5060755;28;20576;-63
2020/12/23 20:15:23;;;;;;;1126.93;998.80;;;;;;;;;;5051937;28;20662;-63
2020/12/23 20:17:50;;;;;;;1104.10;997.97;;;;;;;;;;5058711;28;20577;-63
2020/12/23 20:20:17;;;;;;;1168.47;999.90;;;;;;;;;;5060686;28;20220;-64
2020/12/23 20:22:45;;;;;;;1130.43;998.67;;;;;;;;;;5064089;28;20614;-64
2020/12/23 20:25:12;;;;;;;1135.87;999.90;;;;;;;;;;5069965;28;20698;-64
2020/12/23 20:27:42;;;;;;;1184.97;999.90;;;;;;;;;;5072810;28;20269;-64
2020/12/23 20:30:10;;;;;;;1154.03;999.90;;;;;;;;;;5059770;28;20660;-63
2020/12/23 20:32:39;;;;;;;1149.83;999.90;;;;;;;;;;5040722;28;20192;-63
2020/12/23 20:35:07;;;;;;;1111.63;995.20;;;;;;;;;;5056552;28;20191;-63
2020/12/23 20:37:34;;;;;;;1118.13;998.90;;;;;;;;;;5056149;28;20181;-63
2020/12/23 20:40:01;;;;;;;1140.17;999.90;;;;;;;;;;5059446;28;20619;-63
2020/12/23 20:42:29;;;;;;;1097.70;986.40;;;;;;;;;;5047480;28;20329;-63
2020/12/23 20:44:55;;;;;;;1165.03;999.90;;;;;;;;;;5043331;28;20669;-64
2020/12/23 20:47:22;;;;;;;1102.17;991.40;;;;;;;;;;5039801;28;20176;-62
2020/12/23 20:49:49;;;;;;;1102.10;988.00;;;;;;;;;;5051442;28;20210;-64
2020/12/23 20:52:15;;;;;;;1102.73;983.27;;;;;;;;;;5061773;28;20237;-64
2020/12/23 20:54:42;;;;;;;1084.77;975.53;;;;;;;;;;5059239;28;20584;-64
2020/12/23 20:57:09;;;;;;;1113.30;996.00;;;;;;;;;;5065413;28;20293;-63
2020/12/23 20:59:35;;;;;;;1100.57;992.30;;;;;;;;;;5053921;28;20238;-65
2020/12/23 21:02:02;;;;;;;1119.33;997.67;;;;;;;;;;5058370;28;20266;-63
2020/12/23 21:04:28;;;;;;;1115.20;997.93;;;;;;;;;;5052963;28;20691;-64
2020/12/23 21:06:55;;;;;;;1113.97;999.67;;;;;;;;;;5056898;28;20430;-65
2020/12/23 21:09:22;;;;;;;1155.23;998.97;;;;;;;;;;5056814;28;20179;-65
2020/12/23 21:11:49;;;;;;;1090.90;984.70;;;;;;;;;;5056985;28;20183;-64
2020/12/23 21:14:16;;;;;;;1128.00;999.90;;;;;;;;;;5058501;28;20286;-63
2020/12/23 21:16:53;;;;;;;1317.27;999.90;;;;;;;;;;5057043;28;20620;-63
2020/12/23 21:19:20;;;;;;;1137.30;999.90;;;;;;;;;;5057079;28;20686;-64
2020/12/23 21:21:48;;;;;;;1152.27;999.90;;;;;;;;;;5052712;28;20187;-64
2020/12/23 21:24:15;;;;;;;1090.53;980.33;;;;;;;;;;5059122;28;20182;-65
2020/12/23 21:26:42;;;;;;;1203.70;999.90;;;;;;;;;;5058256;28;20926;-64
2020/12/23 21:29:09;;;;;;;1103.07;986.33;;;;;;;;;;5055714;28;20743;-63
2020/12/23 21:31:36;;;;;;;1015.07;924.23;;;;;;;;;;5054238;28;20206;-63
2020/12/23 21:34:03;;;;;;;1089.60;971.73;;;;;;;;;;5057397;28;20171;-61
2020/12/23 21:36:30;;;;;;;1036.40;934.30;;;;;;;;;;5056951;28;20198;-62
2020/12/23 21:38:56;;;;;;;995.60;896.67;;;;;;;;;;5056420;28;20269;-61
2020/12/23 21:41:33;;;;;;;1035.80;939.20;;;;;;;;;;5058839;28;20167;-62
2020/12/23 21:44:01;;;;;;;988.23;903.90;;;;;;;;;;5061558;28;20734;-62
2020/12/23 21:46:27;;;;;;;1001.97;904.73;;;;;;;;;;5072021;28;20168;-62
2020/12/23 21:48:54;;;;;;;1145.63;979.63;;;;;;;;;;5059056;28;20179;-60
2020/12/23 21:51:28;;;;;;;978.47;881.97;;;;;;;;;;5059454;28;20191;-62
2020/12/23 21:53:55;;;;;;;971.97;883.10;;;;;;;;;;5064707;28;20684;-62
2020/12/23 21:56:22;;;;;;;981.03;890.63;;;;;;;;;;5059252;28;20309;-62
2020/12/23 21:58:48;;;;;;;999.90;898.70;;;;;;;;;;5060305;28;20241;-63
2020/12/23 22:01:21;;;;;;;937.37;847.10;;;;;;;;;;5060440;28;20378;-63
2020/12/23 22:03:47;;;;;;;853.90;773.10;;;;;;;;;;5059836;28;20186;-63
2020/12/23 22:06:14;;;;;;;755.50;693.00;;;;;;;;;;5071909;28;20207;-62
2020/12/23 22:08:41;;;;;;;776.30;712.53;;;;;;;;;;5069656;28;20190;-61
2020/12/23 22:11:07;;;;;;;728.60;672.30;;;;;;;;;;5066011;28;21376;-61
2020/12/23 22:13:34;;;;;;;698.10;644.70;;;;;;;;;;5060968;28;20193;-63
2020/12/23 22:16:00;;;;;;;716.40;655.07;;;;;;;;;;5065935;28;20193;-60
2020/12/23 22:18:27;;;;;;;803.90;731.97;;;;;;;;;;5061826;28;20231;-61
2020/12/23 22:20:54;;;;;;;803.47;736.47;;;;;;;;;;5071762;28;20185;-64
2020/12/23 22:23:20;;;;;;;735.70;675.87;;;;;;;;;;5064390;28;20235;-62
2020/12/23 22:25:47;;;;;;;835.27;763.43;;;;;;;;;;5062822;28;20186;-62
2020/12/23 22:28:13;;;;;;;680.43;628.60;;;;;;;;;;5060247;28;20194;-63
2020/12/23 22:30:40;;;;;;;780.33;718.80;;;;;;;;;;5064455;28;20190;-61
2020/12/23 22:33:06;;;;;;;767.53;705.43;;;;;;;;;;5059906;28;20634;-63
2020/12/23 22:35:33;;;;;;;817.63;745.77;;;;;;;;;;5055599;28;20195;-63
2020/12/23 22:38:00;;;;;;;873.73;803.27;;;;;;;;;;5061823;28;20229;-64
2020/12/23 22:40:26;;;;;;;783.27;719.87;;;;;;;;;;5062314;28;20219;-62
2020/12/23 22:42:53;;;;;;;670.77;618.87;;;;;;;;;;5059673;28;20186;-62
2020/12/23 22:45:20;;;;;;;761.23;700.00;;;;;;;;;;5061968;28;20278;-64
2020/12/23 22:47:46;;;;;;;810.60;736.27;;;;;;;;;;5058700;28;20654;-60
2020/12/23 22:50:14;;;;;;;953.43;858.80;;;;;;;;;;5063806;28;20281;-61
2020/12/23 22:52:40;;;;;;;821.87;750.53;;;;;;;;;;5064074;28;20175;-60
2020/12/23 22:55:08;;;;;;;774.53;710.70;;;;;;;;;;5064127;28;20194;-60
2020/12/23 22:57:34;;;;;;;684.97;634.63;;;;;;;;;;5063629;28;20397;-61
2020/12/23 23:00:01;;;;;;;869.67;791.90;;;;;;;;;;5060537;28;20234;-61
2020/12/23 23:02:30;;;;;;;843.40;769.20;;;;;;;;;;5062203;28;20238;-61
2020/12/23 23:04:57;;;;;;;901.17;812.63;;;;;;;;;;5063429;28;20190;-62
2020/12/23 23:07:24;;;;;;;695.80;639.83;;;;;;;;;;5063682;28;20185;-62
2020/12/23 23:09:50;;;;;;;714.60;659.67;;;;;;;;;;5063206;28;20183;-61
2020/12/23 23:12:17;;;;;;;834.00;761.00;;;;;;;;;;5063553;28;20647;-61
2020/12/23 23:14:47;;;;;;;912.60;826.73;;;;;;;;;;5063350;28;20183;-61
2020/12/23 23:17:14;;;;;;;866.70;798.87;;;;;;;;;;5062544;28;20701;-62
2020/12/23 23:19:41;;;;;;;935.67;846.60;;;;;;;;;;5063102;28;20581;-61
2020/12/23 23:22:08;;;;;;;875.80;790.17;;;;;;;;;;5062982;28;20190;-61
2020/12/23 23:24:40;;;;;;;845.07;760.70;;;;;;;;;;5064131;28;20512;-62
2020/12/23 23:27:07;;;;;;;861.77;780.67;;;;;;;;;;5062070;28;20182;-62
2020/12/23 23:29:34;;;;;;;857.30;779.70;;;;;;;;;;5060767;28;20182;-61
2020/12/23 23:32:00;;;;;;;853.43;774.80;;;;;;;;;;5059759;28;20186;-60
2020/12/23 23:34:27;;;;;;;913.13;821.23;;;;;;;;;;5063437;28;20207;-60
2020/12/23 23:36:53;;;;;;;785.63;721.00;;;;;;;;;;5063753;28;20517;-60
2020/12/23 23:39:22;;;;;;;960.47;866.37;;;;;;;;;;5059745;28;20225;-63
2020/12/23 23:41:49;;;;;;;847.30;766.73;;;;;;;;;;5063251;28;20193;-61
2020/12/23 23:44:15;;;;;;;830.17;753.37;;;;;;;;;;5062436;28;20185;-63
2020/12/23 23:46:42;;;;;;;849.00;766.87;;;;;;;;;;5062013;28;20257;-60
2020/12/23 23:49:08;;;;;;;960.63;862.33;;;;;;;;;;5063005;28;20218;-60
2020/12/23 23:51:35;;;;;;;917.53;825.10;;;;;;;;;;5062811;28;20217;-61
2020/12/23 23:54:01;;;;;;;906.60;815.60;;;;;;;;;;5062831;28;20683;-61
2020/12/23 23:56:28;;;;;;;816.87;739.87;;;;;;;;;;5059845;28;20246;-62
2020/12/23 23:58:55;;;;;;;854.83;770.97;;;;;;;;;;5060288;28;20249;-63
